sensor_id;sensor_type;location;lat;lon;timestamp;P1;durP1;ratioP1;P2;durP2;ratioP2
1949;SDS011;975;48.760;9.152;2022-07-29T00:00:33;7.45;;;5.38;;
1949;SDS011;975;48.760;9.152;2022-07-29T00:03:01;7.55;;;6.25;;
1949;SDS011;975;48.760;9.152;2022-07-29T00:05:30;7.60;;;5.90;;
1949;SDS011;975;48.760;9.152;2022-07-29T00:07:58;9.70;;;6.82;;
1949;SDS011;975;48.760;9.152;2022-07-29T00:10:25;8.57;;;5.70;;
1949;SDS011;975;48.760;9.152;2022-07-29T00:12:52;9.60;;;6.13;;
1949;SDS011;975;48.760;9.152;2022-07-29T00:15:20;7.60;;;5.68;;
1949;SDS011;975;48.760;9.152;2022-07-29T00:17:47;8.80;;;6.32;;
1949;SDS011;975;48.760;9.152;2022-07-29T00:20:15;8.50;;;5.88;;
1949;SDS011;975;48.760;9.152;2022-07-29T00:22:44;9.20;;;5.80;;
1949;SDS011;975;48.760;9.152;2022-07-29T00:25:12;6.45;;;5.40;;
1949;SDS011;975;48.760;9.152;2022-07-29T00:27:39;8.90;;;6.20;;
1949;SDS011;975;48.760;9.152;2022-07-29T00:30:07;6.88;;;5.50;;
1949;SDS011;975;48.760;9.152;2022-07-29T00:32:34;8.38;;;6.10;;
1949;SDS011;975;48.760;9.152;2022-07-29T00:35:02;7.57;;;6.15;;
1949;SDS011;975;48.760;9.152;2022-07-29T00:37:49;9.23;;;5.57;;
1949;SDS011;975;48.760;9.152;2022-07-29T00:40:16;8.00;;;6.10;;
1949;SDS011;975;48.760;9.152;2022-07-29T00:42:44;8.13;;;5.45;;
1949;SDS011;975;48.760;9.152;2022-07-29T00:45:12;7.80;;;5.63;;
1949;SDS011;975;48.760;9.152;2022-07-29T00:47:39;10.60;;;5.90;;
1949;SDS011;975;48.760;9.152;2022-07-29T00:50:08;6.25;;;5.53;;
1949;SDS011;975;48.760;9.152;2022-07-29T00:52:36;7.40;;;5.57;;
1949;SDS011;975;48.760;9.152;2022-07-29T00:55:07;9.23;;;5.88;;
1949;SDS011;975;48.760;9.152;2022-07-29T00:57:34;7.55;;;5.63;;
1949;SDS011;975;48.760;9.152;2022-07-29T01:00:02;9.18;;;6.03;;
1949;SDS011;975;48.760;9.152;2022-07-29T01:02:31;7.10;;;5.82;;
1949;SDS011;975;48.760;9.152;2022-07-29T01:04:59;6.72;;;6.03;;
1949;SDS011;975;48.760;9.152;2022-07-29T01:07:27;7.03;;;5.43;;
1949;SDS011;975;48.760;9.152;2022-07-29T01:09:55;8.52;;;5.93;;
1949;SDS011;975;48.760;9.152;2022-07-29T01:12:25;8.70;;;6.00;;
1949;SDS011;975;48.760;9.152;2022-07-29T01:14:54;9.88;;;5.63;;
1949;SDS011;975;48.760;9.152;2022-07-29T01:17:24;8.18;;;5.85;;
1949;SDS011;975;48.760;9.152;2022-07-29T01:19:57;7.63;;;5.43;;
1949;SDS011;975;48.760;9.152;2022-07-29T01:22:29;9.93;;;6.07;;
1949;SDS011;975;48.760;9.152;2022-07-29T01:30:30;7.55;;;5.65;;
1949;SDS011;975;48.760;9.152;2022-07-29T01:33:00;8.63;;;5.78;;
1949;SDS011;975;48.760;9.152;2022-07-29T01:35:30;8.18;;;6.00;;
1949;SDS011;975;48.760;9.152;2022-07-29T01:38:01;9.20;;;6.57;;
1949;SDS011;975;48.760;9.152;2022-07-29T01:40:33;8.52;;;5.55;;
1949;SDS011;975;48.760;9.152;2022-07-29T01:43:03;7.80;;;5.68;;
1949;SDS011;975;48.760;9.152;2022-07-29T01:45:37;8.73;;;5.93;;
1949;SDS011;975;48.760;9.152;2022-07-29T01:48:06;8.18;;;5.55;;
1949;SDS011;975;48.760;9.152;2022-07-29T01:50:38;7.03;;;5.15;;
1949;SDS011;975;48.760;9.152;2022-07-29T01:53:09;7.88;;;5.85;;
1949;SDS011;975;48.760;9.152;2022-07-29T01:55:38;6.43;;;5.28;;
1949;SDS011;975;48.760;9.152;2022-07-29T01:58:06;6.93;;;5.28;;
1949;SDS011;975;48.760;9.152;2022-07-29T02:00:36;8.65;;;6.10;;
1949;SDS011;975;48.760;9.152;2022-07-29T02:03:05;7.85;;;5.57;;
1949;SDS011;975;48.760;9.152;2022-07-29T02:05:32;6.30;;;5.10;;
1949;SDS011;975;48.760;9.152;2022-07-29T02:08:01;7.28;;;5.43;;
1949;SDS011;975;48.760;9.152;2022-07-29T02:10:30;6.60;;;5.15;;
1949;SDS011;975;48.760;9.152;2022-07-29T02:12:58;8.15;;;5.40;;
1949;SDS011;975;48.760;9.152;2022-07-29T02:15:27;6.53;;;5.30;;
1949;SDS011;975;48.760;9.152;2022-07-29T02:17:58;7.43;;;5.88;;
1949;SDS011;975;48.760;9.152;2022-07-29T02:20:27;6.57;;;4.82;;
1949;SDS011;975;48.760;9.152;2022-07-29T02:22:55;8.23;;;6.25;;
1949;SDS011;975;48.760;9.152;2022-07-29T02:25:24;6.55;;;5.10;;
1949;SDS011;975;48.760;9.152;2022-07-29T02:27:52;9.18;;;6.00;;
1949;SDS011;975;48.760;9.152;2022-07-29T02:30:20;7.05;;;5.18;;
1949;SDS011;975;48.760;9.152;2022-07-29T02:32:49;6.25;;;4.93;;
1949;SDS011;975;48.760;9.152;2022-07-29T02:35:18;7.10;;;5.20;;
1949;SDS011;975;48.760;9.152;2022-07-29T02:37:46;6.10;;;5.07;;
1949;SDS011;975;48.760;9.152;2022-07-29T02:40:35;7.20;;;5.20;;
1949;SDS011;975;48.760;9.152;2022-07-29T02:43:05;5.57;;;4.80;;
1949;SDS011;975;48.760;9.152;2022-07-29T02:45:33;6.30;;;4.88;;
1949;SDS011;975;48.760;9.152;2022-07-29T02:48:03;8.25;;;5.35;;
1949;SDS011;975;48.760;9.152;2022-07-29T02:53:01;5.88;;;4.53;;
1949;SDS011;975;48.760;9.152;2022-07-29T02:55:30;6.38;;;4.95;;
1949;SDS011;975;48.760;9.152;2022-07-29T02:57:59;7.35;;;4.80;;
1949;SDS011;975;48.760;9.152;2022-07-29T03:00:28;6.32;;;4.30;;
1949;SDS011;975;48.760;9.152;2022-07-29T03:02:58;6.90;;;4.85;;
1949;SDS011;975;48.760;9.152;2022-07-29T03:05:26;9.48;;;4.53;;
1949;SDS011;975;48.760;9.152;2022-07-29T03:07:55;6.97;;;4.72;;
1949;SDS011;975;48.760;9.152;2022-07-29T03:10:25;6.55;;;4.78;;
1949;SDS011;975;48.760;9.152;2022-07-29T03:12:54;6.97;;;4.18;;
1949;SDS011;975;48.760;9.152;2022-07-29T03:15:21;6.97;;;4.18;;
1949;SDS011;975;48.760;9.152;2022-07-29T03:17:49;5.55;;;4.22;;
1949;SDS011;975;48.760;9.152;2022-07-29T03:20:17;6.03;;;4.53;;
1949;SDS011;975;48.760;9.152;2022-07-29T03:22:44;5.20;;;4.47;;
1949;SDS011;975;48.760;9.152;2022-07-29T03:25:13;6.57;;;4.40;;
1949;SDS011;975;48.760;9.152;2022-07-29T03:27:42;5.80;;;4.60;;
1949;SDS011;975;48.760;9.152;2022-07-29T03:30:10;6.93;;;4.50;;
1949;SDS011;975;48.760;9.152;2022-07-29T03:32:48;8.10;;;4.13;;
1949;SDS011;975;48.760;9.152;2022-07-29T03:35:16;6.40;;;4.60;;
1949;SDS011;975;48.760;9.152;2022-07-29T03:37:44;6.03;;;4.40;;
1949;SDS011;975;48.760;9.152;2022-07-29T03:40:15;5.20;;;4.63;;
1949;SDS011;975;48.760;9.152;2022-07-29T03:42:45;4.45;;;3.90;;
1949;SDS011;975;48.760;9.152;2022-07-29T03:45:14;6.63;;;4.78;;
1949;SDS011;975;48.760;9.152;2022-07-29T03:47:43;6.70;;;4.32;;
1949;SDS011;975;48.760;9.152;2022-07-29T03:52:39;7.03;;;4.32;;
1949;SDS011;975;48.760;9.152;2022-07-29T03:55:07;4.75;;;3.78;;
1949;SDS011;975;48.760;9.152;2022-07-29T03:57:35;4.93;;;4.22;;
1949;SDS011;975;48.760;9.152;2022-07-29T04:00:05;5.97;;;4.03;;
1949;SDS011;975;48.760;9.152;2022-07-29T04:02:33;7.70;;;4.32;;
1949;SDS011;975;48.760;9.152;2022-07-29T04:05:01;6.13;;;4.13;;
1949;SDS011;975;48.760;9.152;2022-07-29T04:07:28;5.20;;;4.50;;
1949;SDS011;975;48.760;9.152;2022-07-29T04:09:56;7.15;;;4.60;;
1949;SDS011;975;48.760;9.152;2022-07-29T04:12:23;5.25;;;4.18;;
1949;SDS011;975;48.760;9.152;2022-07-29T04:14:51;5.53;;;4.15;;
1949;SDS011;975;48.760;9.152;2022-07-29T04:17:20;5.70;;;4.10;;
1949;SDS011;975;48.760;9.152;2022-07-29T04:19:47;5.63;;;4.47;;
1949;SDS011;975;48.760;9.152;2022-07-29T04:22:14;6.90;;;4.38;;
1949;SDS011;975;48.760;9.152;2022-07-29T04:24:42;4.78;;;4.28;;
1949;SDS011;975;48.760;9.152;2022-07-29T04:27:09;6.00;;;4.28;;
1949;SDS011;975;48.760;9.152;2022-07-29T04:29:37;7.07;;;3.80;;
1949;SDS011;975;48.760;9.152;2022-07-29T04:32:05;4.93;;;3.80;;
1949;SDS011;975;48.760;9.152;2022-07-29T04:34:33;5.00;;;3.80;;
1949;SDS011;975;48.760;9.152;2022-07-29T04:37:01;6.13;;;3.85;;
1949;SDS011;975;48.760;9.152;2022-07-29T04:39:28;5.28;;;4.70;;
1949;SDS011;975;48.760;9.152;2022-07-29T04:41:56;4.40;;;3.92;;
1949;SDS011;975;48.760;9.152;2022-07-29T04:44:23;6.55;;;3.85;;
1949;SDS011;975;48.760;9.152;2022-07-29T04:46:51;5.60;;;3.58;;
1949;SDS011;975;48.760;9.152;2022-07-29T04:49:18;7.43;;;4.32;;
1949;SDS011;975;48.760;9.152;2022-07-29T04:51:47;5.60;;;3.50;;
1949;SDS011;975;48.760;9.152;2022-07-29T04:54:14;5.72;;;3.90;;
1949;SDS011;975;48.760;9.152;2022-07-29T04:56:42;4.10;;;3.70;;
1949;SDS011;975;48.760;9.152;2022-07-29T04:59:09;4.35;;;3.60;;
1949;SDS011;975;48.760;9.152;2022-07-29T05:01:37;5.43;;;3.83;;
1949;SDS011;975;48.760;9.152;2022-07-29T05:04:04;5.95;;;3.60;;
1949;SDS011;975;48.760;9.152;2022-07-29T05:06:32;5.53;;;3.42;;
1949;SDS011;975;48.760;9.152;2022-07-29T05:09:00;6.35;;;4.00;;
1949;SDS011;975;48.760;9.152;2022-07-29T05:11:28;4.00;;;3.47;;
1949;SDS011;975;48.760;9.152;2022-07-29T05:13:55;6.20;;;3.92;;
1949;SDS011;975;48.760;9.152;2022-07-29T05:16:23;5.55;;;4.05;;
1949;SDS011;975;48.760;9.152;2022-07-29T05:18:50;4.93;;;3.45;;
1949;SDS011;975;48.760;9.152;2022-07-29T05:21:18;5.25;;;3.60;;
1949;SDS011;975;48.760;9.152;2022-07-29T05:23:45;5.22;;;3.13;;
1949;SDS011;975;48.760;9.152;2022-07-29T05:26:14;4.35;;;3.28;;
1949;SDS011;975;48.760;9.152;2022-07-29T05:28:41;4.10;;;2.65;;
1949;SDS011;975;48.760;9.152;2022-07-29T05:31:09;6.28;;;3.47;;
1949;SDS011;975;48.760;9.152;2022-07-29T05:33:36;6.40;;;3.08;;
1949;SDS011;975;48.760;9.152;2022-07-29T05:36:04;4.90;;;3.25;;
1949;SDS011;975;48.760;9.152;2022-07-29T05:38:32;4.65;;;3.33;;
1949;SDS011;975;48.760;9.152;2022-07-29T05:40:59;3.78;;;2.80;;
1949;SDS011;975;48.760;9.152;2022-07-29T05:43:28;3.90;;;2.33;;
1949;SDS011;975;48.760;9.152;2022-07-29T05:45:56;4.07;;;2.30;;
1949;SDS011;975;48.760;9.152;2022-07-29T05:48:24;4.90;;;2.63;;
1949;SDS011;975;48.760;9.152;2022-07-29T05:50:51;8.02;;;2.75;;
1949;SDS011;975;48.760;9.152;2022-07-29T05:53:20;3.75;;;2.70;;
1949;SDS011;975;48.760;9.152;2022-07-29T05:55:51;3.92;;;2.53;;
1949;SDS011;975;48.760;9.152;2022-07-29T05:58:19;2.78;;;2.25;;
1949;SDS011;975;48.760;9.152;2022-07-29T06:00:48;3.13;;;2.70;;
1949;SDS011;975;48.760;9.152;2022-07-29T06:03:15;3.53;;;2.70;;
1949;SDS011;975;48.760;9.152;2022-07-29T06:05:43;3.75;;;2.30;;
1949;SDS011;975;48.760;9.152;2022-07-29T06:08:11;3.47;;;2.50;;
1949;SDS011;975;48.760;9.152;2022-07-29T06:10:38;3.53;;;2.72;;
1949;SDS011;975;48.760;9.152;2022-07-29T06:13:05;6.40;;;2.55;;
1949;SDS011;975;48.760;9.152;2022-07-29T06:15:33;2.70;;;2.45;;
1949;SDS011;975;48.760;9.152;2022-07-29T06:18:02;3.33;;;2.20;;
1949;SDS011;975;48.760;9.152;2022-07-29T06:20:32;3.53;;;2.60;;
1949;SDS011;975;48.760;9.152;2022-07-29T06:23:00;2.90;;;2.63;;
1949;SDS011;975;48.760;9.152;2022-07-29T06:25:29;4.28;;;2.78;;
1949;SDS011;975;48.760;9.152;2022-07-29T06:27:57;3.30;;;2.65;;
1949;SDS011;975;48.760;9.152;2022-07-29T06:30:25;3.20;;;2.60;;
1949;SDS011;975;48.760;9.152;2022-07-29T06:32:53;5.38;;;2.60;;
1949;SDS011;975;48.760;9.152;2022-07-29T06:35:22;3.33;;;2.60;;
1949;SDS011;975;48.760;9.152;2022-07-29T06:37:50;5.93;;;4.38;;
1949;SDS011;975;48.760;9.152;2022-07-29T06:40:17;3.85;;;2.90;;
1949;SDS011;975;48.760;9.152;2022-07-29T06:43:03;6.30;;;2.97;;
1949;SDS011;975;48.760;9.152;2022-07-29T06:45:33;5.90;;;2.80;;
1949;SDS011;975;48.760;9.152;2022-07-29T06:48:00;5.32;;;2.85;;
1949;SDS011;975;48.760;9.152;2022-07-29T06:50:29;3.00;;;2.70;;
1949;SDS011;975;48.760;9.152;2022-07-29T06:52:57;4.45;;;3.15;;
1949;SDS011;975;48.760;9.152;2022-07-29T06:55:24;3.92;;;2.80;;
1949;SDS011;975;48.760;9.152;2022-07-29T06:57:52;3.67;;;3.22;;
1949;SDS011;975;48.760;9.152;2022-07-29T07:00:19;4.43;;;3.17;;
1949;SDS011;975;48.760;9.152;2022-07-29T07:02:47;4.80;;;2.88;;
1949;SDS011;975;48.760;9.152;2022-07-29T07:05:14;4.82;;;3.25;;
1949;SDS011;975;48.760;9.152;2022-07-29T07:07:43;3.83;;;2.85;;
1949;SDS011;975;48.760;9.152;2022-07-29T07:10:10;5.88;;;2.88;;
1949;SDS011;975;48.760;9.152;2022-07-29T07:12:38;3.53;;;3.00;;
1949;SDS011;975;48.760;9.152;2022-07-29T07:15:06;4.55;;;3.30;;
1949;SDS011;975;48.760;9.152;2022-07-29T07:17:33;3.70;;;3.10;;
1949;SDS011;975;48.760;9.152;2022-07-29T07:20:01;4.45;;;2.65;;
1949;SDS011;975;48.760;9.152;2022-07-29T07:22:28;3.25;;;2.85;;
1949;SDS011;975;48.760;9.152;2022-07-29T07:24:57;3.53;;;3.00;;
1949;SDS011;975;48.760;9.152;2022-07-29T07:27:24;4.85;;;3.20;;
1949;SDS011;975;48.760;9.152;2022-07-29T07:29:52;4.28;;;3.03;;
1949;SDS011;975;48.760;9.152;2022-07-29T07:32:20;4.25;;;3.03;;
1949;SDS011;975;48.760;9.152;2022-07-29T07:34:47;3.88;;;3.35;;
1949;SDS011;975;48.760;9.152;2022-07-29T07:37:15;5.00;;;3.10;;
1949;SDS011;975;48.760;9.152;2022-07-29T07:39:44;5.07;;;3.00;;
1949;SDS011;975;48.760;9.152;2022-07-29T07:42:13;3.47;;;3.08;;
1949;SDS011;975;48.760;9.152;2022-07-29T07:44:41;6.95;;;3.42;;
1949;SDS011;975;48.760;9.152;2022-07-29T07:47:08;4.57;;;2.90;;
1949;SDS011;975;48.760;9.152;2022-07-29T07:49:36;3.95;;;3.50;;
1949;SDS011;975;48.760;9.152;2022-07-29T07:52:03;5.25;;;3.30;;
1949;SDS011;975;48.760;9.152;2022-07-29T07:54:31;4.88;;;3.38;;
1949;SDS011;975;48.760;9.152;2022-07-29T07:56:59;3.58;;;2.95;;
1949;SDS011;975;48.760;9.152;2022-07-29T07:59:27;3.85;;;2.97;;
1949;SDS011;975;48.760;9.152;2022-07-29T08:01:55;4.38;;;3.75;;
1949;SDS011;975;48.760;9.152;2022-07-29T08:04:22;4.53;;;3.15;;
1949;SDS011;975;48.760;9.152;2022-07-29T08:06:50;3.60;;;2.92;;
1949;SDS011;975;48.760;9.152;2022-07-29T08:09:19;4.35;;;3.17;;
1949;SDS011;975;48.760;9.152;2022-07-29T08:11:47;4.80;;;3.38;;
1949;SDS011;975;48.760;9.152;2022-07-29T08:14:14;4.18;;;3.38;;
1949;SDS011;975;48.760;9.152;2022-07-29T08:16:43;4.28;;;3.50;;
1949;SDS011;975;48.760;9.152;2022-07-29T08:19:10;3.58;;;3.28;;
1949;SDS011;975;48.760;9.152;2022-07-29T08:21:38;6.28;;;3.80;;
1949;SDS011;975;48.760;9.152;2022-07-29T08:24:06;4.78;;;3.72;;
1949;SDS011;975;48.760;9.152;2022-07-29T08:26:51;5.05;;;3.88;;
1949;SDS011;975;48.760;9.152;2022-07-29T08:29:18;8.82;;;3.28;;
1949;SDS011;975;48.760;9.152;2022-07-29T08:31:47;7.00;;;3.60;;
1949;SDS011;975;48.760;9.152;2022-07-29T08:34:18;6.03;;;3.50;;
1949;SDS011;975;48.760;9.152;2022-07-29T08:36:45;4.05;;;3.13;;
1949;SDS011;975;48.760;9.152;2022-07-29T08:39:13;5.60;;;4.20;;
1949;SDS011;975;48.760;9.152;2022-07-29T08:41:41;4.07;;;3.50;;
1949;SDS011;975;48.760;9.152;2022-07-29T08:44:11;4.00;;;3.42;;
1949;SDS011;975;48.760;9.152;2022-07-29T08:46:39;7.72;;;3.60;;
1949;SDS011;975;48.760;9.152;2022-07-29T08:49:08;5.18;;;3.72;;
1949;SDS011;975;48.760;9.152;2022-07-29T08:51:35;5.82;;;3.40;;
1949;SDS011;975;48.760;9.152;2022-07-29T08:54:03;4.88;;;3.85;;
1949;SDS011;975;48.760;9.152;2022-07-29T08:56:31;6.43;;;3.47;;
1949;SDS011;975;48.760;9.152;2022-07-29T08:58:59;8.02;;;4.20;;
1949;SDS011;975;48.760;9.152;2022-07-29T09:01:27;5.28;;;3.90;;
1949;SDS011;975;48.760;9.152;2022-07-29T09:03:57;6.75;;;3.67;;
1949;SDS011;975;48.760;9.152;2022-07-29T09:06:28;4.55;;;3.47;;
1949;SDS011;975;48.760;9.152;2022-07-29T09:08:58;6.35;;;3.70;;
1949;SDS011;975;48.760;9.152;2022-07-29T09:11:26;6.93;;;3.50;;
1949;SDS011;975;48.760;9.152;2022-07-29T09:13:54;4.10;;;3.22;;
1949;SDS011;975;48.760;9.152;2022-07-29T09:16:21;4.55;;;3.60;;
1949;SDS011;975;48.760;9.152;2022-07-29T09:18:49;4.65;;;3.50;;
1949;SDS011;975;48.760;9.152;2022-07-29T09:21:17;4.53;;;3.13;;
1949;SDS011;975;48.760;9.152;2022-07-29T09:24:05;6.45;;;3.45;;
1949;SDS011;975;48.760;9.152;2022-07-29T09:26:33;4.03;;;3.45;;
1949;SDS011;975;48.760;9.152;2022-07-29T09:29:07;6.13;;;3.88;;
1949;SDS011;975;48.760;9.152;2022-07-29T09:31:36;5.07;;;3.42;;
1949;SDS011;975;48.760;9.152;2022-07-29T09:34:04;5.45;;;3.80;;
1949;SDS011;975;48.760;9.152;2022-07-29T09:36:36;7.53;;;3.97;;
1949;SDS011;975;48.760;9.152;2022-07-29T09:39:06;3.95;;;3.60;;
1949;SDS011;975;48.760;9.152;2022-07-29T09:41:47;5.15;;;3.50;;
1949;SDS011;975;48.760;9.152;2022-07-29T09:44:14;6.13;;;3.45;;
1949;SDS011;975;48.760;9.152;2022-07-29T09:46:55;4.35;;;3.17;;
1949;SDS011;975;48.760;9.152;2022-07-29T09:49:24;5.57;;;3.70;;
1949;SDS011;975;48.760;9.152;2022-07-29T09:52:02;7.03;;;3.47;;
1949;SDS011;975;48.760;9.152;2022-07-29T09:54:33;5.95;;;3.90;;
1949;SDS011;975;48.760;9.152;2022-07-29T09:57:04;7.28;;;3.90;;
1949;SDS011;975;48.760;9.152;2022-07-29T09:59:32;6.95;;;3.85;;
1949;SDS011;975;48.760;9.152;2022-07-29T10:01:59;4.80;;;3.40;;
1949;SDS011;975;48.760;9.152;2022-07-29T10:04:37;6.63;;;3.85;;
1949;SDS011;975;48.760;9.152;2022-07-29T10:07:05;5.90;;;3.88;;
1949;SDS011;975;48.760;9.152;2022-07-29T10:09:34;5.95;;;3.90;;
1949;SDS011;975;48.760;9.152;2022-07-29T10:12:03;4.57;;;3.65;;
1949;SDS011;975;48.760;9.152;2022-07-29T10:14:39;4.47;;;3.45;;
1949;SDS011;975;48.760;9.152;2022-07-29T10:17:06;4.85;;;3.75;;
1949;SDS011;975;48.760;9.152;2022-07-29T10:19:35;10.25;;;4.40;;
1949;SDS011;975;48.760;9.152;2022-07-29T10:22:03;6.03;;;4.70;;
1949;SDS011;975;48.760;9.152;2022-07-29T10:24:31;6.88;;;4.22;;
1949;SDS011;975;48.760;9.152;2022-07-29T10:27:01;5.43;;;4.00;;
1949;SDS011;975;48.760;9.152;2022-07-29T10:29:29;4.70;;;4.15;;
1949;SDS011;975;48.760;9.152;2022-07-29T10:32:00;6.50;;;4.40;;
1949;SDS011;975;48.760;9.152;2022-07-29T10:34:34;6.18;;;4.10;;
1949;SDS011;975;48.760;9.152;2022-07-29T10:37:07;5.40;;;4.20;;
1949;SDS011;975;48.760;9.152;2022-07-29T10:39:39;7.38;;;4.45;;
1949;SDS011;975;48.760;9.152;2022-07-29T10:42:13;7.32;;;4.13;;
1949;SDS011;975;48.760;9.152;2022-07-29T10:44:42;6.40;;;4.25;;
1949;SDS011;975;48.760;9.152;2022-07-29T10:47:19;6.97;;;4.20;;
1949;SDS011;975;48.760;9.152;2022-07-29T10:49:55;7.93;;;4.30;;
1949;SDS011;975;48.760;9.152;2022-07-29T10:52:22;10.25;;;5.10;;
1949;SDS011;975;48.760;9.152;2022-07-29T10:54:53;6.88;;;4.50;;
1949;SDS011;975;48.760;9.152;2022-07-29T10:57:23;10.23;;;5.78;;
1949;SDS011;975;48.760;9.152;2022-07-29T11:02:45;9.20;;;5.57;;
1949;SDS011;975;48.760;9.152;2022-07-29T11:05:17;8.50;;;6.20;;
1949;SDS011;975;48.760;9.152;2022-07-29T11:10:32;20.88;;;7.38;;
1949;SDS011;975;48.760;9.152;2022-07-29T11:13:01;12.48;;;7.43;;
1949;SDS011;975;48.760;9.152;2022-07-29T11:15:51;15.30;;;7.53;;
1949;SDS011;975;48.760;9.152;2022-07-29T11:18:19;19.08;;;8.90;;
1949;SDS011;975;48.760;9.152;2022-07-29T11:20:49;13.77;;;7.57;;
1949;SDS011;975;48.760;9.152;2022-07-29T11:23:23;13.98;;;7.03;;
1949;SDS011;975;48.760;9.152;2022-07-29T11:26:14;14.80;;;7.90;;
1949;SDS011;975;48.760;9.152;2022-07-29T11:28:50;15.73;;;8.65;;
1949;SDS011;975;48.760;9.152;2022-07-29T11:31:19;13.77;;;8.18;;
1949;SDS011;975;48.760;9.152;2022-07-29T11:33:47;17.23;;;8.35;;
1949;SDS011;975;48.760;9.152;2022-07-29T11:36:15;14.65;;;8.88;;
1949;SDS011;975;48.760;9.152;2022-07-29T11:38:42;12.88;;;8.70;;
1949;SDS011;975;48.760;9.152;2022-07-29T11:41:19;14.57;;;9.38;;
1949;SDS011;975;48.760;9.152;2022-07-29T11:43:48;13.02;;;9.18;;
1949;SDS011;975;48.760;9.152;2022-07-29T11:46:18;14.38;;;9.07;;
1949;SDS011;975;48.760;9.152;2022-07-29T11:49:05;14.95;;;8.20;;
1949;SDS011;975;48.760;9.152;2022-07-29T11:51:34;17.15;;;8.60;;
1949;SDS011;975;48.760;9.152;2022-07-29T11:54:02;13.57;;;7.90;;
1949;SDS011;975;48.760;9.152;2022-07-29T11:56:30;16.45;;;8.38;;
1949;SDS011;975;48.760;9.152;2022-07-29T11:59:04;13.68;;;8.70;;
1949;SDS011;975;48.760;9.152;2022-07-29T12:01:33;16.40;;;8.23;;
1949;SDS011;975;48.760;9.152;2022-07-29T12:04:04;12.40;;;8.40;;
1949;SDS011;975;48.760;9.152;2022-07-29T12:06:32;7.43;;;6.40;;
1949;SDS011;975;48.760;9.152;2022-07-29T12:08:59;11.43;;;6.55;;
1949;SDS011;975;48.760;9.152;2022-07-29T12:11:27;10.32;;;5.68;;
1949;SDS011;975;48.760;9.152;2022-07-29T12:13:55;9.27;;;5.88;;
1949;SDS011;975;48.760;9.152;2022-07-29T12:16:22;8.18;;;5.80;;
1949;SDS011;975;48.760;9.152;2022-07-29T12:18:58;9.48;;;5.97;;
1949;SDS011;975;48.760;9.152;2022-07-29T12:21:26;7.65;;;5.13;;
1949;SDS011;975;48.760;9.152;2022-07-29T12:23:54;7.72;;;4.75;;
1949;SDS011;975;48.760;9.152;2022-07-29T12:26:21;7.70;;;5.05;;
1949;SDS011;975;48.760;9.152;2022-07-29T12:28:49;9.20;;;5.57;;
1949;SDS011;975;48.760;9.152;2022-07-29T12:31:16;6.97;;;4.80;;
1949;SDS011;975;48.760;9.152;2022-07-29T12:33:49;7.55;;;4.90;;
1949;SDS011;975;48.760;9.152;2022-07-29T12:36:20;7.82;;;4.82;;
1949;SDS011;975;48.760;9.152;2022-07-29T12:38:47;8.05;;;5.55;;
1949;SDS011;975;48.760;9.152;2022-07-29T12:41:15;6.47;;;5.05;;
1949;SDS011;975;48.760;9.152;2022-07-29T12:43:51;6.47;;;4.60;;
1949;SDS011;975;48.760;9.152;2022-07-29T12:46:19;9.30;;;5.63;;
1949;SDS011;975;48.760;9.152;2022-07-29T12:48:49;9.55;;;6.10;;
1949;SDS011;975;48.760;9.152;2022-07-29T12:51:29;9.63;;;6.28;;
1949;SDS011;975;48.760;9.152;2022-07-29T12:54:04;9.55;;;6.03;;
1949;SDS011;975;48.760;9.152;2022-07-29T12:56:32;8.95;;;5.78;;
1949;SDS011;975;48.760;9.152;2022-07-29T12:59:00;7.38;;;5.25;;
1949;SDS011;975;48.760;9.152;2022-07-29T13:01:38;9.93;;;5.65;;
1949;SDS011;975;48.760;9.152;2022-07-29T13:04:05;10.18;;;6.53;;
1949;SDS011;975;48.760;9.152;2022-07-29T13:06:35;10.30;;;5.57;;
1949;SDS011;975;48.760;9.152;2022-07-29T13:09:04;10.35;;;6.20;;
1949;SDS011;975;48.760;9.152;2022-07-29T13:11:32;12.15;;;6.75;;
1949;SDS011;975;48.760;9.152;2022-07-29T13:14:00;11.82;;;7.28;;
1949;SDS011;975;48.760;9.152;2022-07-29T13:16:27;11.25;;;7.20;;
1949;SDS011;975;48.760;9.152;2022-07-29T13:19:05;12.00;;;8.35;;
1949;SDS011;975;48.760;9.152;2022-07-29T13:21:32;13.52;;;7.53;;
1949;SDS011;975;48.760;9.152;2022-07-29T13:24:01;12.25;;;7.65;;
1949;SDS011;975;48.760;9.152;2022-07-29T13:26:29;12.63;;;8.50;;
1949;SDS011;975;48.760;9.152;2022-07-29T13:28:56;12.63;;;8.32;;
1949;SDS011;975;48.760;9.152;2022-07-29T13:31:24;10.48;;;7.70;;
1949;SDS011;975;48.760;9.152;2022-07-29T13:33:51;9.88;;;7.22;;
1949;SDS011;975;48.760;9.152;2022-07-29T13:36:19;9.38;;;7.07;;
1949;SDS011;975;48.760;9.152;2022-07-29T13:38:46;8.73;;;6.18;;
1949;SDS011;975;48.760;9.152;2022-07-29T13:41:15;11.32;;;7.13;;
1949;SDS011;975;48.760;9.152;2022-07-29T13:43:43;11.25;;;7.82;;
1949;SDS011;975;48.760;9.152;2022-07-29T13:46:10;10.65;;;6.80;;
1949;SDS011;975;48.760;9.152;2022-07-29T13:48:38;10.02;;;6.25;;
1949;SDS011;975;48.760;9.152;2022-07-29T13:51:06;9.73;;;6.07;;
1949;SDS011;975;48.760;9.152;2022-07-29T13:53:33;6.95;;;5.68;;
1949;SDS011;975;48.760;9.152;2022-07-29T13:56:01;7.88;;;5.63;;
1949;SDS011;975;48.760;9.152;2022-07-29T13:58:32;7.38;;;5.75;;
1949;SDS011;975;48.760;9.152;2022-07-29T14:01:00;8.45;;;6.18;;
1949;SDS011;975;48.760;9.152;2022-07-29T14:03:27;8.55;;;6.18;;
1949;SDS011;975;48.760;9.152;2022-07-29T14:05:55;9.02;;;6.00;;
1949;SDS011;975;48.760;9.152;2022-07-29T14:08:25;7.65;;;5.80;;
1949;SDS011;975;48.760;9.152;2022-07-29T14:10:55;8.27;;;6.43;;
1949;SDS011;975;48.760;9.152;2022-07-29T14:13:23;9.45;;;6.45;;
1949;SDS011;975;48.760;9.152;2022-07-29T14:15:51;8.57;;;6.10;;
1949;SDS011;975;48.760;9.152;2022-07-29T14:18:19;8.93;;;6.53;;
1949;SDS011;975;48.760;9.152;2022-07-29T14:20:47;8.23;;;6.20;;
1949;SDS011;975;48.760;9.152;2022-07-29T14:23:14;9.10;;;7.00;;
1949;SDS011;975;48.760;9.152;2022-07-29T14:25:42;8.73;;;6.93;;
1949;SDS011;975;48.760;9.152;2022-07-29T14:28:09;8.32;;;6.90;;
1949;SDS011;975;48.760;9.152;2022-07-29T14:30:37;8.48;;;6.60;;
1949;SDS011;975;48.760;9.152;2022-07-29T14:33:06;8.57;;;6.35;;
1949;SDS011;975;48.760;9.152;2022-07-29T14:35:33;10.30;;;6.63;;
1949;SDS011;975;48.760;9.152;2022-07-29T14:38:01;7.93;;;6.80;;
1949;SDS011;975;48.760;9.152;2022-07-29T14:40:28;8.73;;;5.88;;
1949;SDS011;975;48.760;9.152;2022-07-29T14:42:56;9.68;;;6.85;;
1949;SDS011;975;48.760;9.152;2022-07-29T14:45:23;7.80;;;5.60;;
1949;SDS011;975;48.760;9.152;2022-07-29T14:47:50;10.18;;;6.32;;
1949;SDS011;975;48.760;9.152;2022-07-29T14:50:19;7.38;;;6.60;;
1949;SDS011;975;48.760;9.152;2022-07-29T14:52:47;8.45;;;6.03;;
1949;SDS011;975;48.760;9.152;2022-07-29T14:55:14;10.30;;;7.05;;
1949;SDS011;975;48.760;9.152;2022-07-29T14:57:42;6.80;;;5.90;;
1949;SDS011;975;48.760;9.152;2022-07-29T15:00:09;7.95;;;5.72;;
1949;SDS011;975;48.760;9.152;2022-07-29T15:02:37;7.05;;;5.55;;
1949;SDS011;975;48.760;9.152;2022-07-29T15:05:05;7.72;;;6.57;;
1949;SDS011;975;48.760;9.152;2022-07-29T15:07:34;8.48;;;6.80;;
1949;SDS011;975;48.760;9.152;2022-07-29T15:10:01;11.68;;;6.60;;
1949;SDS011;975;48.760;9.152;2022-07-29T15:12:29;7.40;;;6.25;;
1949;SDS011;975;48.760;9.152;2022-07-29T15:14:57;7.85;;;6.53;;
1949;SDS011;975;48.760;9.152;2022-07-29T15:17:24;7.15;;;6.03;;
1949;SDS011;975;48.760;9.152;2022-07-29T15:19:51;9.75;;;7.45;;
1949;SDS011;975;48.760;9.152;2022-07-29T15:22:19;10.40;;;6.25;;
1949;SDS011;975;48.760;9.152;2022-07-29T15:24:48;10.75;;;6.70;;
1949;SDS011;975;48.760;9.152;2022-07-29T15:27:15;9.82;;;6.65;;
1949;SDS011;975;48.760;9.152;2022-07-29T15:29:43;8.18;;;6.03;;
1949;SDS011;975;48.760;9.152;2022-07-29T15:32:10;9.20;;;6.25;;
1949;SDS011;975;48.760;9.152;2022-07-29T15:34:38;9.35;;;6.22;;
1949;SDS011;975;48.760;9.152;2022-07-29T15:37:05;7.18;;;5.85;;
1949;SDS011;975;48.760;9.152;2022-07-29T15:39:33;10.45;;;6.85;;
1949;SDS011;975;48.760;9.152;2022-07-29T15:42:02;9.00;;;6.32;;
1949;SDS011;975;48.760;9.152;2022-07-29T15:44:29;7.80;;;6.25;;
1949;SDS011;975;48.760;9.152;2022-07-29T15:46:57;7.45;;;6.35;;
1949;SDS011;975;48.760;9.152;2022-07-29T15:49:31;10.57;;;6.65;;
1949;SDS011;975;48.760;9.152;2022-07-29T15:51:59;11.15;;;6.60;;
1949;SDS011;975;48.760;9.152;2022-07-29T15:54:28;7.28;;;5.80;;